createdAt,value
2018-05-25T00:01:23.926Z,5.73
2018-05-25T00:03:57.622Z,5.97
2018-05-25T00:06:31.219Z,5.50
2018-05-25T00:09:05.642Z,5.80
2018-05-25T00:11:39.322Z,5.30
2018-05-25T00:14:13.246Z,5.00
2018-05-25T00:16:47.050Z,4.27
2018-05-25T00:19:20.863Z,4.30
2018-05-25T00:21:54.667Z,3.93
2018-05-25T00:24:28.270Z,3.60
2018-05-25T00:27:02.574Z,3.57
2018-05-25T00:29:36.286Z,3.80
2018-05-25T00:32:09.813Z,3.77
2018-05-25T00:34:43.564Z,3.67
2018-05-25T00:37:17.081Z,3.67
2018-05-25T00:39:50.698Z,3.60
2018-05-25T00:42:25.015Z,3.73
2018-05-25T00:44:58.693Z,3.23
2018-05-25T00:47:32.298Z,4.03
2018-05-25T00:50:06.620Z,3.87
2018-05-25T00:52:41.255Z,3.40
2018-05-25T00:55:26.844Z,3.13
2018-05-25T00:58:01.458Z,3.30
2018-05-25T01:00:35.760Z,3.33
2018-05-25T01:03:10.308Z,3.33
2018-05-25T01:05:43.974Z,4.00
2018-05-25T01:08:17.600Z,3.50
2018-05-25T01:10:51.167Z,3.63
2018-05-25T01:13:25.734Z,3.40
2018-05-25T01:15:59.529Z,3.33
2018-05-25T01:18:33.051Z,3.30
2018-05-25T01:21:06.612Z,3.40
2018-05-25T01:23:40.338Z,2.80
2018-05-25T01:26:13.823Z,3.47
2018-05-25T01:28:47.543Z,3.80
2018-05-25T01:31:21.346Z,3.27
2018-05-25T01:33:55.766Z,3.40
2018-05-25T01:36:29.569Z,3.20
2018-05-25T01:39:03.278Z,3.20
2018-05-25T01:41:36.978Z,3.70
2018-05-25T01:44:10.574Z,3.70
2018-05-25T01:46:44.087Z,3.60
2018-05-25T01:49:17.674Z,3.60
2018-05-25T01:51:51.263Z,3.70
2018-05-25T01:54:24.870Z,3.40
2018-05-25T01:56:58.590Z,3.03
2018-05-25T01:59:32.273Z,3.40
2018-05-25T02:02:05.999Z,3.40
2018-05-25T02:04:39.617Z,3.47
2018-05-25T02:07:13.195Z,3.33
2018-05-25T02:09:47.794Z,3.10
2018-05-25T02:12:22.246Z,3.60
2018-05-25T02:14:56.041Z,3.53
2018-05-25T02:17:29.675Z,3.70
2018-05-25T02:20:03.450Z,3.67
2018-05-25T02:22:37.131Z,3.13
2018-05-25T02:25:11.659Z,3.30
2018-05-25T02:27:45.348Z,3.43
2018-05-25T02:30:19.798Z,3.33
2018-05-25T02:32:53.366Z,3.97
2018-05-25T02:35:27.099Z,3.43
2018-05-25T02:38:01.391Z,3.47
2018-05-25T02:40:35.049Z,3.70
2018-05-25T02:43:08.799Z,3.30
2018-05-25T02:45:42.387Z,3.40
2018-05-25T02:48:15.934Z,4.20
2018-05-25T02:50:49.618Z,3.83
2018-05-25T02:53:23.136Z,3.37
2018-05-25T02:55:56.728Z,3.67
2018-05-25T02:58:31.356Z,3.53
2018-05-25T03:01:05.679Z,4.27
2018-05-25T03:03:39.347Z,4.00
2018-05-25T03:06:12.867Z,3.43
2018-05-25T03:08:46.442Z,3.73
2018-05-25T03:11:20.185Z,3.50
2018-05-25T03:13:53.982Z,3.60
2018-05-25T03:16:27.590Z,3.53
2018-05-25T03:19:01.396Z,3.27
2018-05-25T03:21:35.071Z,3.70
2018-05-25T03:24:09.495Z,3.57
2018-05-25T03:26:43.206Z,3.70
2018-05-25T03:29:16.822Z,3.77
2018-05-25T03:31:50.331Z,3.83
2018-05-25T03:34:23.899Z,3.70
2018-05-25T03:36:57.508Z,3.87
2018-05-25T03:39:31.228Z,3.73
2018-05-25T03:42:05.030Z,3.90
2018-05-25T03:44:38.911Z,3.53
2018-05-25T03:47:12.643Z,3.70
2018-05-25T03:49:46.441Z,3.90
2018-05-25T03:52:20.871Z,3.53
2018-05-25T03:54:54.669Z,3.87
2018-05-25T03:57:29.076Z,3.67
2018-05-25T04:00:14.479Z,3.90
2018-05-25T04:02:48.166Z,3.13
2018-05-25T04:05:21.901Z,3.37
2018-05-25T04:07:55.683Z,3.70
2018-05-25T04:10:29.382Z,3.50
2018-05-25T04:13:03.181Z,3.57
2018-05-25T04:15:36.720Z,3.30
2018-05-25T04:18:10.599Z,3.70
2018-05-25T04:20:44.414Z,3.33
2018-05-25T04:23:18.002Z,3.80
2018-05-25T04:25:51.812Z,3.83
2018-05-25T04:28:26.084Z,3.90
2018-05-25T04:30:59.730Z,3.77
2018-05-25T04:33:33.507Z,3.90
2018-05-25T04:36:07.159Z,3.93
2018-05-25T04:38:40.702Z,3.77
2018-05-25T04:41:14.422Z,3.90
2018-05-25T04:43:48.039Z,4.23
2018-05-25T04:46:21.638Z,4.27
2018-05-25T04:48:55.142Z,4.30
2018-05-25T04:51:28.834Z,3.53
2018-05-25T04:54:02.652Z,3.80
2018-05-25T04:56:36.443Z,3.87
2018-05-25T04:59:10.878Z,3.90
2018-05-25T05:01:44.678Z,4.23
2018-05-25T05:04:19.129Z,3.93
2018-05-25T05:06:52.909Z,3.70
2018-05-25T05:09:26.711Z,3.80
2018-05-25T05:12:00.372Z,3.50
2018-05-25T05:14:33.986Z,3.73
2018-05-25T05:17:08.413Z,3.87
2018-05-25T05:19:42.143Z,4.13
2018-05-25T05:22:16.034Z,3.57
2018-05-25T05:24:49.819Z,3.90
2018-05-25T05:27:23.559Z,3.90
2018-05-25T05:29:57.154Z,4.23
2018-05-25T05:32:31.161Z,4.50
2018-05-25T05:35:04.980Z,4.00
2018-05-25T05:37:38.777Z,4.70
2018-05-25T05:40:12.378Z,4.40
2018-05-25T05:42:46.678Z,4.00
2018-05-25T05:45:20.268Z,3.97
2018-05-25T05:47:53.994Z,3.63
2018-05-25T05:50:27.601Z,4.13
2018-05-25T05:53:01.918Z,4.50
2018-05-25T05:55:35.691Z,4.67
2018-05-25T05:58:09.514Z,4.10
2018-05-25T06:00:43.031Z,4.30
2018-05-25T06:03:16.635Z,4.20
2018-05-25T06:05:50.387Z,4.40
2018-05-25T06:08:24.060Z,4.57
2018-05-25T06:10:59.483Z,4.37
2018-05-25T06:13:33.774Z,4.13
2018-05-25T06:16:08.199Z,4.20
2018-05-25T06:18:41.901Z,3.93
2018-05-25T06:21:15.382Z,5.00
2018-05-25T06:23:49.136Z,4.83
2018-05-25T06:26:22.927Z,4.83
2018-05-25T06:28:56.535Z,4.77
2018-05-25T06:31:30.039Z,4.00
2018-05-25T06:34:03.698Z,4.80
2018-05-25T06:36:37.334Z,4.73
2018-05-25T06:39:11.146Z,4.20
2018-05-25T06:41:44.847Z,4.17
2018-05-25T06:44:18.555Z,4.40
2018-05-25T06:46:52.970Z,4.80
2018-05-25T06:49:27.384Z,4.03
2018-05-25T06:52:00.887Z,4.50
2018-05-25T06:54:34.478Z,4.63
2018-05-25T06:57:08.036Z,4.50
2018-05-25T06:59:41.792Z,4.60
2018-05-25T07:02:16.420Z,5.10
2018-05-25T07:04:50.836Z,5.40
2018-05-25T07:07:24.643Z,4.50
2018-05-25T07:09:58.367Z,4.43
2018-05-25T07:12:32.038Z,4.83
2018-05-25T07:15:06.442Z,4.97
2018-05-25T07:17:40.179Z,4.90
2018-05-25T07:20:13.877Z,4.70
2018-05-25T07:22:48.501Z,4.90
2018-05-25T07:25:22.917Z,4.90
2018-05-25T07:27:56.437Z,4.67
2018-05-25T07:30:29.995Z,5.07
2018-05-25T07:33:03.751Z,4.90
2018-05-25T07:35:37.322Z,4.90
2018-05-25T07:38:11.337Z,4.73
2018-05-25T07:40:44.926Z,4.83
2018-05-25T07:43:18.530Z,4.70
2018-05-25T07:45:52.831Z,4.47
2018-05-25T07:48:26.768Z,5.23
2018-05-25T07:51:01.031Z,4.77
2018-05-25T07:53:35.714Z,5.40
2018-05-25T07:56:34.973Z,4.93
2018-05-25T07:59:08.622Z,5.37
2018-05-25T08:01:42.299Z,5.27
2018-05-25T08:04:15.898Z,5.13
2018-05-25T08:06:49.823Z,5.40
2018-05-25T08:09:23.512Z,5.70
2018-05-25T08:11:57.939Z,4.70
2018-05-25T08:14:31.534Z,5.13
2018-05-25T08:17:05.120Z,5.10
2018-05-25T08:19:38.846Z,4.73
2018-05-25T08:22:12.650Z,5.70
2018-05-25T08:24:47.055Z,5.33
2018-05-25T08:27:20.751Z,5.03
2018-05-25T08:29:54.368Z,5.00
2018-05-25T08:32:28.907Z,5.20
2018-05-25T08:35:03.206Z,5.13
2018-05-25T08:37:36.920Z,4.67
2018-05-25T08:40:10.521Z,5.30
2018-05-25T08:42:44.021Z,4.60
2018-05-25T08:45:19.541Z,4.70
2018-05-25T08:47:53.986Z,4.13
2018-05-25T08:50:27.501Z,5.13
2018-05-25T08:53:01.616Z,4.63
2018-05-25T08:55:34.910Z,5.10
2018-05-25T08:58:08.535Z,4.93
2018-05-25T09:00:42.329Z,5.00
2018-05-25T09:03:15.904Z,5.17
2018-05-25T09:05:49.598Z,5.50
2018-05-25T09:08:23.272Z,5.00
2018-05-25T09:10:56.969Z,5.33
2018-05-25T09:13:30.821Z,5.23
2018-05-25T09:16:05.116Z,4.83
2018-05-25T09:18:38.838Z,5.07
2018-05-25T09:21:13.332Z,5.27
2018-05-25T09:23:46.958Z,4.50
2018-05-25T09:26:20.547Z,5.43
2018-05-25T09:28:54.926Z,5.00
2018-05-25T09:31:29.390Z,5.53
2018-05-25T09:34:03.094Z,5.20
2018-05-25T09:36:36.831Z,4.77
2018-05-25T09:39:10.323Z,5.73
2018-05-25T09:41:44.118Z,4.73
2018-05-25T09:44:17.714Z,5.23
2018-05-25T09:46:51.310Z,5.47
2018-05-25T09:49:25.734Z,5.03
2018-05-25T09:51:59.542Z,5.50
2018-05-25T09:54:33.357Z,5.07
2018-05-25T09:57:07.688Z,4.30
2018-05-25T09:59:41.224Z,5.20
2018-05-25T10:02:15.166Z,5.20
2018-05-25T10:04:48.773Z,4.87
2018-05-25T10:07:22.375Z,4.60
2018-05-25T10:09:56.185Z,4.57
2018-05-25T10:12:29.690Z,4.67
2018-05-25T10:15:03.578Z,4.73
2018-05-25T10:17:37.102Z,4.77
2018-05-25T10:20:11.482Z,3.97
2018-05-25T10:22:45.212Z,4.40
2018-05-25T10:25:19.011Z,4.00
2018-05-25T10:27:52.614Z,3.80
2018-05-25T10:30:27.243Z,4.57
2018-05-25T10:33:01.051Z,4.70
2018-05-25T10:35:34.755Z,4.40
2018-05-25T10:38:08.277Z,4.17
2018-05-25T10:40:42.050Z,4.47
2018-05-25T10:43:16.066Z,4.00
2018-05-25T10:45:50.081Z,4.10
2018-05-25T10:48:23.742Z,4.07
2018-05-25T10:50:57.500Z,4.20
2018-05-25T10:53:31.303Z,4.00
2018-05-25T10:56:04.923Z,4.17
2018-05-25T10:58:38.694Z,4.20
2018-05-25T11:01:12.362Z,3.90
2018-05-25T11:03:45.978Z,4.27
2018-05-25T11:06:19.534Z,3.97
2018-05-25T11:08:53.493Z,4.20
2018-05-25T11:11:27.099Z,4.10
2018-05-25T11:14:00.612Z,4.03
2018-05-25T11:16:34.286Z,4.33
2018-05-25T11:19:07.994Z,3.97
2018-05-25T11:21:42.330Z,3.47
2018-05-25T11:24:15.875Z,3.60
2018-05-25T11:26:49.535Z,3.60
2018-05-25T11:29:23.330Z,3.80
2018-05-25T11:31:57.139Z,3.53
2018-05-25T11:34:30.938Z,3.77
2018-05-25T11:37:04.551Z,4.07
2018-05-25T11:39:38.240Z,3.93
2018-05-25T11:42:11.959Z,3.40
2018-05-25T11:44:45.556Z,4.10
2018-05-25T11:47:19.053Z,3.50
2018-05-25T11:49:52.749Z,3.80
2018-05-25T11:52:26.359Z,3.60
2018-05-25T11:55:00.171Z,3.90
2018-05-25T11:57:33.835Z,3.63
2018-05-25T12:00:07.572Z,3.83
2018-05-25T12:02:42.072Z,4.07
2018-05-25T12:05:15.795Z,4.10
2018-05-25T12:07:49.598Z,4.07
2018-05-25T12:10:23.303Z,3.80
2018-05-25T12:12:57.640Z,4.27
2018-05-25T12:15:32.046Z,4.30
2018-05-25T12:18:05.850Z,4.23
2018-05-25T12:20:39.652Z,3.80
2018-05-25T12:23:13.527Z,3.63
2018-05-25T12:25:48.086Z,4.13
2018-05-25T12:28:21.889Z,3.53
2018-05-25T12:30:55.594Z,3.40
2018-05-25T12:33:29.300Z,4.40
2018-05-25T12:36:03.069Z,3.50
2018-05-25T12:38:36.916Z,3.20
2018-05-25T12:41:10.718Z,4.00
2018-05-25T12:43:44.515Z,3.93
2018-05-25T12:46:18.331Z,4.30
2018-05-25T12:48:51.828Z,3.67
2018-05-25T12:51:25.532Z,3.97
2018-05-25T12:53:59.130Z,4.07
2018-05-25T12:56:32.846Z,4.13
2018-05-25T12:59:06.370Z,3.97
2018-05-25T13:01:40.128Z,4.20
2018-05-25T13:04:13.639Z,3.77
2018-05-25T13:06:47.262Z,3.90
2018-05-25T13:09:20.939Z,3.80
2018-05-25T13:11:54.540Z,3.90
2018-05-25T13:14:28.967Z,4.23
2018-05-25T13:17:02.651Z,4.03
2018-05-25T13:19:36.231Z,4.10
2018-05-25T13:22:09.970Z,4.60
2018-05-25T13:24:43.771Z,4.40
2018-05-25T13:27:17.373Z,4.33
2018-05-25T13:29:51.070Z,4.50
2018-05-25T13:32:25.599Z,4.30
2018-05-25T13:34:59.203Z,4.80
2018-05-25T13:37:32.890Z,4.27
2018-05-25T13:40:06.470Z,5.10
2018-05-25T13:42:40.117Z,4.07
2018-05-25T13:45:13.810Z,4.40
2018-05-25T13:47:47.568Z,4.37
2018-05-25T13:50:21.215Z,4.50
2018-05-25T13:52:54.736Z,4.40
2018-05-25T13:55:28.618Z,5.37
2018-05-25T13:58:02.225Z,4.83
2018-05-25T14:00:36.707Z,5.43
2018-05-25T14:03:10.656Z,5.10
2018-05-25T14:05:44.459Z,4.70
2018-05-25T14:08:18.982Z,4.70
2018-05-25T14:10:52.678Z,4.90
2018-05-25T14:13:26.196Z,4.17
2018-05-25T14:15:59.971Z,4.87
2018-05-25T14:18:33.715Z,5.43
2018-05-25T14:21:07.363Z,4.80
2018-05-25T14:23:41.099Z,4.70
2018-05-25T14:26:14.697Z,4.60
2018-05-25T14:28:49.209Z,5.27
2018-05-25T14:31:22.921Z,4.60
2018-05-25T14:33:56.727Z,4.43
2018-05-25T14:36:30.422Z,4.80
2018-05-25T14:39:03.962Z,4.57
2018-05-25T14:41:39.041Z,3.93
2018-05-25T14:44:12.655Z,4.80
2018-05-25T14:46:47.171Z,4.87
2018-05-25T14:49:20.903Z,4.40
2018-05-25T14:51:54.463Z,4.53
2018-05-25T14:54:28.194Z,4.30
2018-05-25T14:57:01.715Z,4.60
2018-05-25T14:59:35.603Z,4.30
2018-05-25T15:02:09.436Z,4.90
2018-05-25T15:04:43.428Z,4.80
2018-05-25T15:07:17.026Z,5.00
2018-05-25T15:09:50.854Z,4.70
2018-05-25T15:12:24.526Z,4.60
2018-05-25T15:14:58.122Z,4.07
2018-05-25T15:17:31.703Z,4.87
2018-05-25T15:20:05.434Z,4.57
2018-05-25T15:22:39.108Z,4.53
2018-05-25T15:25:12.722Z,4.50
2018-05-25T15:27:46.310Z,4.33
2018-05-25T15:30:20.759Z,4.27
2018-05-25T15:32:54.534Z,4.67
2018-05-25T15:35:28.470Z,4.33
2018-05-25T15:38:03.703Z,4.17
2018-05-25T15:40:37.522Z,5.27
2018-05-25T15:43:11.331Z,4.17
2018-05-25T15:45:44.918Z,4.33
2018-05-25T15:48:18.530Z,4.23
2018-05-25T15:50:53.043Z,4.10
2018-05-25T15:53:27.442Z,3.70
2018-05-25T15:56:02.596Z,4.13
2018-05-25T15:58:36.210Z,3.93
2018-05-25T16:01:09.719Z,4.13
2018-05-25T16:03:44.717Z,3.73
2018-05-25T16:06:18.330Z,4.57
2018-05-25T16:08:52.051Z,3.80
2018-05-25T16:11:25.651Z,3.90
2018-05-25T16:13:59.487Z,4.00
2018-05-25T16:16:33.278Z,4.13
2018-05-25T16:19:06.951Z,4.00
2018-05-25T16:21:41.480Z,3.63
2018-05-25T16:24:15.107Z,4.00
2018-05-25T16:26:49.097Z,3.90
2018-05-25T16:29:22.790Z,4.33
2018-05-25T16:31:57.183Z,4.20
2018-05-25T16:34:30.885Z,4.77
2018-05-25T16:37:04.520Z,8.77
2018-05-25T16:39:39.759Z,5.90
2018-05-25T16:42:14.051Z,4.77
2018-05-25T16:44:48.486Z,3.70
2018-05-25T16:47:22.420Z,3.80
2018-05-25T16:49:56.038Z,5.33
2018-05-25T16:52:29.606Z,4.17
2018-05-25T16:55:03.624Z,3.83
2018-05-25T16:57:37.162Z,3.83
2018-05-25T17:00:10.753Z,4.30
2018-05-25T17:02:44.623Z,4.03
2018-05-25T17:05:19.149Z,4.23
2018-05-25T17:07:53.674Z,4.10
2018-05-25T17:10:27.358Z,4.07
2018-05-25T17:13:01.089Z,4.30
2018-05-25T17:15:34.885Z,3.90
2018-05-25T17:18:08.447Z,4.67
2018-05-25T17:20:42.202Z,4.23
2018-05-25T17:23:16.094Z,3.83
2018-05-25T17:25:49.615Z,3.80
2018-05-25T17:28:23.340Z,4.60
2018-05-25T17:30:57.069Z,3.97
2018-05-25T17:33:30.771Z,4.47
2018-05-25T17:36:04.458Z,4.20
2018-05-25T17:38:37.906Z,4.17
2018-05-25T17:41:11.603Z,4.20
2018-05-25T17:43:46.114Z,4.50
2018-05-25T17:46:19.723Z,4.20
2018-05-25T17:48:53.218Z,4.00
2018-05-25T17:51:26.850Z,4.17
2018-05-25T17:54:00.530Z,4.47
2018-05-25T17:56:34.342Z,5.03
2018-05-25T17:59:08.355Z,4.20
2018-05-25T18:01:41.999Z,4.50
2018-05-25T18:04:17.398Z,3.87
2018-05-25T18:06:51.020Z,3.80
2018-05-25T18:09:24.604Z,4.17
2018-05-25T18:11:58.310Z,6.60
2018-05-25T18:14:33.433Z,3.57
2018-05-25T18:17:07.046Z,4.53
2018-05-25T18:19:40.846Z,4.10
2018-05-25T18:22:14.443Z,4.57
2018-05-25T18:24:48.114Z,3.83
2018-05-25T18:27:22.732Z,4.60
2018-05-25T18:29:56.274Z,4.40
2018-05-25T18:32:29.898Z,4.23
2018-05-25T18:35:03.683Z,4.47
2018-05-25T18:37:38.199Z,4.37
2018-05-25T18:40:11.747Z,4.40
2018-05-25T18:42:45.394Z,4.10
2018-05-25T18:45:18.971Z,4.53
2018-05-25T18:47:53.413Z,4.27
2018-05-25T18:50:26.995Z,4.10
2018-05-25T18:53:00.728Z,4.40
2018-05-25T18:55:34.330Z,4.80
2018-05-25T18:58:08.846Z,4.47
2018-05-25T19:00:43.369Z,4.33
2018-05-25T19:03:17.178Z,4.77
2018-05-25T19:05:52.298Z,4.67
2018-05-25T19:08:26.019Z,4.50
2018-05-25T19:10:59.521Z,4.67
2018-05-25T19:13:33.213Z,4.53
2018-05-25T19:16:06.944Z,4.53
2018-05-25T19:18:40.626Z,4.43
2018-05-25T19:21:14.335Z,4.33
2018-05-25T19:23:48.230Z,4.40
2018-05-25T19:26:22.042Z,4.90
2018-05-25T19:28:55.651Z,4.50
2018-05-25T19:31:29.452Z,4.57
2018-05-25T19:34:03.123Z,4.70
2018-05-25T19:36:36.859Z,4.43
2018-05-25T19:39:10.872Z,4.60
2018-05-25T19:41:44.470Z,4.70
2018-05-25T19:44:18.142Z,4.57
2018-05-25T19:46:52.103Z,4.50
2018-05-25T19:49:25.819Z,5.30
2018-05-25T19:51:59.523Z,4.93
2018-05-25T19:54:33.443Z,5.40
2018-05-25T19:57:07.304Z,5.53
2018-05-25T19:59:40.986Z,5.30
2018-05-25T20:02:14.530Z,5.30
2018-05-25T20:04:48.316Z,5.27
2018-05-25T20:07:21.999Z,4.90
2018-05-25T20:09:55.716Z,5.40
2018-05-25T20:12:29.443Z,4.90
2018-05-25T20:15:03.131Z,6.73
2018-05-25T20:17:37.751Z,5.27
2018-05-25T20:20:11.562Z,5.10
2018-05-25T20:22:45.978Z,5.20
2018-05-25T20:25:19.578Z,4.80
2018-05-25T20:27:53.384Z,5.20
2018-05-25T20:30:27.186Z,5.07
2018-05-25T20:33:00.907Z,5.03
2018-05-25T20:35:34.828Z,4.73
2018-05-25T20:38:08.590Z,5.30
2018-05-25T20:40:43.026Z,5.17
2018-05-25T20:43:16.826Z,5.37
2018-05-25T20:45:50.430Z,4.70
2018-05-25T20:48:24.035Z,5.37
2018-05-25T20:50:59.350Z,5.53
2018-05-25T20:53:32.998Z,5.10
2018-05-25T20:56:06.547Z,4.97
2018-05-25T20:58:40.276Z,4.80
2018-05-25T21:01:13.859Z,4.60
2018-05-25T21:03:47.595Z,4.77
2018-05-25T21:06:21.376Z,4.37
2018-05-25T21:08:55.918Z,4.07
2018-05-25T21:11:29.718Z,4.33
2018-05-25T21:14:03.219Z,4.03
2018-05-25T21:16:36.799Z,4.40
2018-05-25T21:19:10.597Z,4.23
2018-05-25T21:21:44.309Z,3.73
2018-05-25T21:24:17.810Z,4.20
2018-05-25T21:26:51.346Z,4.13
2018-05-25T21:29:24.985Z,3.43
2018-05-25T21:31:58.933Z,4.50
2018-05-25T21:34:32.607Z,3.53
2018-05-25T21:37:06.362Z,3.57
2018-05-25T21:39:40.031Z,3.37
2018-05-25T21:42:13.743Z,3.83
2018-05-25T21:44:48.159Z,3.37
2018-05-25T21:47:21.971Z,3.40
2018-05-25T21:49:55.595Z,3.47
2018-05-25T21:52:29.374Z,3.40
2018-05-25T21:55:02.886Z,3.03
2018-05-25T21:57:36.546Z,3.33
2018-05-25T22:00:10.182Z,3.07
2018-05-25T22:02:44.805Z,3.23
2018-05-25T22:05:18.410Z,3.03
2018-05-25T22:07:52.209Z,3.03
2018-05-25T22:10:25.814Z,3.30
2018-05-25T22:12:59.622Z,3.17
2018-05-25T22:15:33.219Z,3.27
2018-05-25T22:18:07.028Z,3.10
2018-05-25T22:20:41.403Z,3.17
2018-05-25T22:23:15.243Z,2.93
2018-05-25T22:25:48.850Z,3.13
2018-05-25T22:28:22.366Z,3.40
2018-05-25T22:30:56.630Z,3.13
2018-05-25T22:33:30.275Z,3.00
2018-05-25T22:36:04.066Z,2.93
2018-05-25T22:38:37.804Z,3.28
2018-05-25T22:41:11.490Z,3.10
2018-05-25T22:43:57.163Z,3.20
2018-05-25T22:46:43.084Z,3.00
2018-05-25T22:49:28.947Z,2.80
2018-05-25T22:52:14.440Z,2.80
2018-05-25T22:54:48.048Z,2.90
2018-05-25T22:57:21.622Z,3.03
2018-05-25T22:59:55.313Z,2.77
2018-05-25T23:02:29.235Z,2.67
2018-05-25T23:05:02.902Z,3.10
2018-05-25T23:07:36.638Z,2.27
2018-05-25T23:10:10.244Z,2.77
2018-05-25T23:12:44.527Z,3.23
2018-05-25T23:15:18.469Z,2.93
2018-05-25T23:17:52.154Z,2.53
2018-05-25T23:20:25.757Z,2.83
2018-05-25T23:22:59.484Z,2.50
2018-05-25T23:25:33.110Z,2.33
2018-05-25T23:28:07.087Z,2.40
2018-05-25T23:30:41.396Z,2.70
2018-05-25T23:33:14.950Z,2.97
2018-05-25T23:35:48.705Z,2.93
2018-05-25T23:38:23.002Z,2.57
2018-05-25T23:40:57.439Z,2.43
2018-05-25T23:43:31.118Z,2.70
2018-05-25T23:46:04.767Z,2.60
2018-05-25T23:48:39.162Z,2.17
2018-05-25T23:51:12.778Z,2.30
2018-05-25T23:53:46.583Z,2.80
2018-05-25T23:56:20.270Z,2.63
2018-05-25T23:58:53.777Z,2.33
